Time;durP1;ratioP1;P1;durP2;ratioP2;P2;SDS_P1;SDS_P2;PMS_P1;PMS_P2;Temp;Humidity;BMP_temperature;BMP_pressure;BME280_temperature;BME280_humidity;BME280_pressure;Samples;Min_cycle;Max_cycle;Signal;HPM_P1;HPM_P2
2022/11/21 00:13:48;;;;;;;59.65;29.58;;;;;;;-5.31;71.04;99356.28;30494359;28;96726;-69
2022/11/21 00:28:48;;;;;;;50.88;26.50;;;;;;;-5.25;71.31;99338.69;30492860;28;96649;-67
2022/11/21 00:43:49;;;;;;;40.60;19.08;;;;;;;-4.81;72.26;99329.97;30492592;28;97242;-65
2022/11/21 00:58:49;;;;;;;42.63;20.77;;;;;;;-4.50;71.78;99326.31;30490729;28;96706;-71
2022/11/21 01:13:52;;;;;;;38.40;21.38;;;;;;;-4.28;71.38;99283.38;30488962;28;96675;-71
2022/11/21 01:28:53;;;;;;;38.88;21.17;;;;;;;-3.92;71.95;99282.78;30488959;28;96651;-70
2022/11/21 01:43:54;;;;;;;41.60;19.75;;;;;;;-3.62;71.50;99266.06;30508059;28;96650;-74
2022/11/21 01:58:57;;;;;;;42.85;21.27;;;;;;;-3.32;71.76;99249.31;30507426;28;96712;-66
2022/11/21 02:13:59;;;;;;;41.47;19.23;;;;;;;-3.04;71.26;99229.16;30505106;28;97405;-70
2022/11/21 02:28:59;;;;;;;32.83;18.33;;;;;;;-2.78;71.83;99213.47;30503901;28;96571;-70
2022/11/21 02:44:18;;;;;;;32.63;17.88;;;;;;;-2.51;71.45;99179.38;30502043;28;96631;-67
2022/11/21 02:59:19;;;;;;;27.40;16.63;;;;;;;-2.21;70.98;99165.03;30501186;28;97559;-72
2022/11/21 03:14:19;;;;;;;27.23;14.75;;;;;;;-1.94;70.62;99140.38;30499507;28;96528;-66
2022/11/21 03:29:20;;;;;;;32.42;14.98;;;;;;;-1.81;71.58;99117.63;30498783;28;96667;-68
2022/11/21 03:44:20;;;;;;;31.25;13.48;;;;;;;-1.74;71.39;99077.03;30496223;28;96659;-72
2022/11/21 03:59:20;;;;;;;27.25;15.13;;;;;;;-1.74;71.80;99058.75;30493571;28;96660;-71
2022/11/21 04:14:21;;;;;;;32.83;15.50;;;;;;;-1.72;71.52;99046.44;30493091;28;97655;-64
2022/11/21 04:29:21;;;;;;;35.20;18.48;;;;;;;-1.75;71.56;99023.19;30492012;28;97241;-71
2022/11/21 04:44:21;;;;;;;42.63;18.50;;;;;;;-1.77;71.99;99005.97;30490624;28;96676;-66
2022/11/21 04:59:22;;;;;;;44.70;19.45;;;;;;;-1.76;72.02;98982.34;30489339;28;97423;-68
2022/11/21 05:14:25;;;;;;;33.75;16.52;;;;;;;-1.63;72.78;98978.75;30499009;28;97313;-65
2022/11/21 05:29:25;;;;;;;27.45;14.55;;;;;;;-1.43;72.86;98951.03;30504094;28;97324;-69
2022/11/21 05:44:25;;;;;;;32.30;16.55;;;;;;;-1.30;72.75;98932.56;30478048;28;97929;-67
2022/11/21 05:59:26;;;;;;;29.27;15.82;;;;;;;-1.36;72.43;98907.78;30504023;28;97237;-64
2022/11/21 06:14:26;;;;;;;31.75;15.35;;;;;;;-1.48;72.66;98890.50;30502760;28;97539;-63
2022/11/21 06:29:26;;;;;;;28.48;15.15;;;;;;;-1.47;73.28;98889.56;30504909;28;97097;-68
2022/11/21 06:44:27;;;;;;;29.73;13.75;;;;;;;-1.38;73.40;98886.16;30506686;28;96728;-67
2022/11/21 06:59:27;;;;;;;25.67;14.98;;;;;;;-1.21;73.36;98877.78;30506246;28;96833;-66
2022/11/21 07:14:28;;;;;;;20.05;11.90;;;;;;;-1.02;73.53;98877.06;30498313;28;98098;-63
2022/11/21 07:29:28;;;;;;;34.33;17.27;;;;;;;-0.69;73.48;98883.03;30498139;28;96702;-66
2022/11/21 07:44:28;;;;;;;31.65;14.75;;;;;;;-0.23;73.36;98874.81;30497598;28;97652;-66
2022/11/21 07:59:29;;;;;;;28.45;12.50;;;;;;;0.21;73.42;98866.63;30493749;28;97313;-63
2022/11/21 08:14:29;;;;;;;28.58;12.88;;;;;;;0.70;73.33;98866.63;30489737;28;97179;-63
2022/11/21 08:29:29;;;;;;;20.90;11.93;;;;;;;1.19;73.31;98862.13;30473267;28;96679;-63
2022/11/21 08:44:33;;;;;;;20.90;10.90;;;;;;;1.61;72.91;98880.03;30484108;28;96719;-60
2022/11/21 08:59:34;;;;;;;17.17;9.10;;;;;;;1.91;72.38;98872.84;30487697;28;97211;-61
2022/11/21 09:29:53;;;;;;;18.00;10.07;;;;;;;2.31;72.02;98881.31;30485580;28;97195;-60
2022/11/21 09:45:12;;;;;;;12.82;7.32;;;;;;;2.47;72.68;98881.47;30482183;28;96692;-64
2022/11/21 10:00:19;;;;;;;22.27;9.88;;;;;;;2.63;72.52;98885.22;30494097;28;97841;-62
2022/11/21 10:15:31;;;;;;;16.60;8.65;;;;;;;3.32;72.91;98865.16;30498993;28;96921;-63
2022/11/21 10:30:32;;;;;;;19.45;9.88;;;;;;;5.08;71.08;98861.72;30498021;28;96687;-62
2022/11/21 10:45:32;;;;;;;16.67;8.30;;;;;;;5.31;70.47;98880.31;30499300;28;96650;-64
2022/11/21 11:00:33;;;;;;;9.55;6.60;;;;;;;5.02;70.08;98862.41;30496503;28;96733;-63
2022/11/21 11:15:35;;;;;;;10.57;5.80;;;;;;;4.75;70.08;98872.31;30493842;28;96730;-62
2022/11/21 11:30:36;;;;;;;12.10;6.53;;;;;;;4.95;70.39;98883.34;30495373;28;97339;-61
2022/11/21 12:01:11;;;;;;;;;;;;;;;5.36;70.24;98896.50;30491428;28;97252;-62
2022/11/21 12:16:13;;;;;;;10.50;7.18;;;;;;;5.20;69.37;98901.81;30493988;28;97386;-61
2022/11/21 12:31:37;;;;;;;8.27;5.20;;;;;;;5.27;69.55;98934.47;30490409;28;96765;-64
2022/11/21 12:46:37;;;;;;;18.10;8.73;;;;;;;4.89;69.21;98965.81;30489337;28;96740;-63
2022/11/21 13:01:51;;;;;;;17.83;8.43;;;;;;;4.44;69.12;98970.50;30484540;28;96980;-62
2022/11/21 13:16:57;;;;;;;18.55;9.25;;;;;;;3.97;69.74;98985.00;30474852;28;97132;-64
2022/11/21 13:31:58;;;;;;;16.65;9.40;;;;;;;3.65;70.11;99004.91;30468389;28;98728;-63
2022/11/21 13:47:11;;;;;;;11.35;7.05;;;;;;;3.36;70.23;99031.50;30470451;28;97656;-61
2022/11/21 14:02:36;;;;;;;11.52;6.93;;;;;;;2.86;70.80;99038.97;30466559;28;98282;-64
2022/11/21 14:17:57;;;;;;;11.65;7.18;;;;;;;2.60;71.36;99059.88;30466657;28;98200;-64
2022/11/21 14:33:22;;;;;;;11.55;7.20;;;;;;;2.32;71.44;99069.56;30461385;28;97313;-64
2022/11/21 14:48:29;;;;;;;12.87;8.03;;;;;;;2.10;71.75;99078.63;30484460;28;96987;-64
2022/11/21 15:03:29;;;;;;;20.13;9.70;;;;;;;1.92;71.86;99087.25;30489189;28;96725;-64
2022/11/21 15:18:32;;;;;;;20.77;12.07;;;;;;;1.83;71.49;99094.19;30487320;28;97063;-61
2022/11/21 15:33:55;;;;;;;25.15;13.30;;;;;;;1.73;71.87;99119.63;30484066;28;97054;-64
2022/11/21 15:48:59;;;;;;;20.98;11.23;;;;;;;1.58;71.68;99127.09;30485063;28;96978;-62
2022/11/21 16:04:02;;;;;;;23.93;11.77;;;;;;;1.34;71.44;99130.97;30483518;28;96799;-61
2022/11/21 16:19:03;;;;;;;21.33;11.10;;;;;;;1.20;71.43;99127.91;30482045;28;97056;-61
2022/11/21 16:34:03;;;;;;;21.02;11.30;;;;;;;1.03;71.69;99116.28;30481480;28;97721;-61
2022/11/21 16:49:05;;;;;;;19.27;9.82;;;;;;;0.89;71.34;99112.25;30479122;28;97562;-62
2022/11/21 17:04:05;;;;;;;14.02;8.35;;;;;;;0.66;71.15;99129.00;30481985;28;96686;-61
2022/11/21 17:19:08;;;;;;;13.10;8.05;;;;;;;0.48;71.38;99128.81;30497591;28;96929;-63
2022/11/21 17:34:09;;;;;;;13.35;7.85;;;;;;;0.49;71.37;99129.63;30496475;28;97606;-63
2022/11/21 17:49:10;;;;;;;15.98;9.05;;;;;;;0.46;71.60;99140.38;30459000;28;97798;-63
2022/11/21 18:04:12;;;;;;;17.42;9.20;;;;;;;0.52;71.37;99160.84;30494367;28;97504;-62
2022/11/21 18:19:13;;;;;;;17.00;9.13;;;;;;;0.48;71.59;99136.69;30492513;28;97662;-63
2022/11/21 18:34:13;;;;;;;18.35;10.73;;;;;;;0.50;71.72;99141.78;30491301;28;96711;-63
2022/11/21 18:49:14;;;;;;;15.10;9.18;;;;;;;0.48;71.58;99139.31;30490467;28;97245;-64
2022/11/21 19:04:14;;;;;;;16.73;8.60;;;;;;;0.34;71.23;99131.78;30490922;28;97196;-65
2022/11/21 19:19:15;;;;;;;22.67;10.20;;;;;;;0.21;71.30;99137.22;30484594;28;96662;-65
2022/11/21 19:34:16;;;;;;;17.42;9.57;;;;;;;0.18;71.58;99134.88;30485591;28;97196;-65
2022/11/21 19:49:18;;;;;;;15.65;9.55;;;;;;;0.23;71.43;99130.06;30487445;28;97278;-66
2022/11/21 20:04:18;;;;;;;23.70;9.90;;;;;;;0.23;71.34;99137.09;30483900;28;97512;-65
2022/11/21 20:19:22;;;;;;;25.77;12.80;;;;;;;0.28;71.08;99161.94;30487118;28;97372;-65
2022/11/21 20:34:23;;;;;;;22.50;12.70;;;;;;;0.29;71.50;99160.19;30492859;28;96691;-65
2022/11/21 20:49:23;;;;;;;20.40;10.35;;;;;;;0.23;71.36;99155.44;30490543;28;97074;-65
2022/11/21 21:04:23;;;;;;;19.50;10.43;;;;;;;0.30;71.59;99152.19;30491053;28;96722;-65
2022/11/21 21:19:24;;;;;;;21.67;10.90;;;;;;;0.32;71.43;99128.47;30489072;28;96688;-66
2022/11/21 21:34:24;;;;;;;28.45;11.65;;;;;;;0.22;71.24;99120.56;30488638;28;96626;-66
2022/11/21 21:49:25;;;;;;;28.13;13.13;;;;;;;0.15;71.67;99101.06;30489839;28;97319;-65
2022/11/21 22:04:25;;;;;;;27.77;14.60;;;;;;;0.08;71.86;99081.59;30506110;28;96670;-65
2022/11/21 22:19:26;;;;;;;31.90;14.75;;;;;;;-0.03;72.48;99080.75;30495934;28;96887;-65
2022/11/21 22:34:27;;;;;;;29.67;14.63;;;;;;;-0.02;72.82;99074.53;30500020;28;97602;-65
2022/11/21 22:49:27;;;;;;;36.95;14.90;;;;;;;-0.09;72.69;99081.25;30502354;28;96748;-64
2022/11/21 23:04:28;;;;;;;25.98;13.52;;;;;;;-0.05;72.99;99089.69;30501463;28;96769;-65
2022/11/21 23:19:28;;;;;;;27.30;12.73;;;;;;;0.02;73.16;99079.53;30500412;28;96752;-64
2022/11/21 23:34:28;;;;;;;29.63;14.85;;;;;;;0.02;73.23;99103.09;30499039;28;96669;-65
2022/11/21 23:49:29;;;;;;;22.30;11.35;;;;;;;0.06;73.39;99075.69;30497979;28;96659;-65
